createdAt,value
2023-03-16T00:02:20.339Z,-3.23
2023-03-16T00:04:47.511Z,-3.26
2023-03-16T00:07:15.227Z,-3.27
2023-03-16T00:09:42.176Z,-3.39
2023-03-16T00:12:18.149Z,-3.49
2023-03-16T00:14:49.176Z,-3.57
2023-03-16T00:17:21.190Z,-3.50
2023-03-16T00:19:51.264Z,-3.49
2023-03-16T00:22:17.841Z,-3.51
2023-03-16T00:24:44.463Z,-3.52
2023-03-16T00:27:15.743Z,-3.51
2023-03-16T00:29:49.658Z,-3.44
2023-03-16T00:32:18.790Z,-3.39
2023-03-16T00:34:46.866Z,-3.42
2023-03-16T00:37:16.157Z,-3.44
2023-03-16T00:39:43.634Z,-3.51
2023-03-16T00:42:11.989Z,-3.54
2023-03-16T00:44:39.159Z,-3.58
2023-03-16T00:47:06.617Z,-3.58
2023-03-16T00:49:34.927Z,-3.56
2023-03-16T00:52:05.606Z,-3.44
2023-03-16T00:54:35.547Z,-3.36
2023-03-16T00:57:02.628Z,-3.41
2023-03-16T00:59:29.895Z,-3.40
2023-03-16T01:01:56.554Z,-3.35
2023-03-16T01:04:23.362Z,-3.36
2023-03-16T01:06:50.008Z,-3.41
2023-03-16T01:09:16.542Z,-3.38
2023-03-16T01:11:46.543Z,-3.37
2023-03-16T01:14:13.204Z,-3.39
2023-03-16T01:16:39.733Z,-3.41
2023-03-16T01:19:06.250Z,-3.44
2023-03-16T01:21:38.305Z,-3.48
2023-03-16T01:24:05.234Z,-3.47
2023-03-16T01:26:32.417Z,-3.35
2023-03-16T01:28:58.910Z,-3.36
2023-03-16T01:31:25.461Z,-3.36
2023-03-16T01:33:52.358Z,-3.33
2023-03-16T01:36:19.640Z,-3.26
2023-03-16T01:38:46.214Z,-3.26
2023-03-16T01:41:12.855Z,-3.17
2023-03-16T01:43:41.009Z,-3.18
2023-03-16T01:46:14.350Z,-3.18
2023-03-16T01:48:58.663Z,-3.16
2023-03-16T01:51:43.042Z,-3.07
2023-03-16T01:54:25.420Z,-3.01
2023-03-16T01:56:58.997Z,-3.01
2023-03-16T01:59:37.877Z,-3.03
2023-03-16T02:02:05.257Z,-3.01
2023-03-16T02:04:52.705Z,-3.06
2023-03-16T02:07:22.491Z,-3.06
2023-03-16T02:09:52.091Z,-3.08
2023-03-16T02:12:19.201Z,-3.18
2023-03-16T02:14:47.367Z,-3.17
2023-03-16T02:17:15.470Z,-3.17
2023-03-16T02:19:47.227Z,-3.14
2023-03-16T02:22:14.794Z,-3.15
2023-03-16T02:24:42.190Z,-3.09
2023-03-16T02:27:31.086Z,-3.10
2023-03-16T02:30:01.425Z,-3.12
2023-03-16T02:32:30.735Z,-3.13
2023-03-16T02:34:59.025Z,-3.13
2023-03-16T02:37:26.762Z,-3.12
2023-03-16T02:39:53.795Z,-3.13
2023-03-16T02:42:23.676Z,-3.12
2023-03-16T02:44:58.574Z,-3.08
2023-03-16T02:47:37.187Z,-3.11
2023-03-16T02:50:06.770Z,-3.12
2023-03-16T02:52:38.378Z,-3.17
2023-03-16T02:55:08.738Z,-3.11
2023-03-16T02:57:35.274Z,-3.05
2023-03-16T03:00:02.402Z,-3.13
2023-03-16T03:02:28.888Z,-3.16
2023-03-16T03:04:55.399Z,-3.18
2023-03-16T03:07:22.098Z,-3.18
2023-03-16T03:09:48.582Z,-3.20
2023-03-16T03:12:15.131Z,-3.16
2023-03-16T03:14:41.730Z,-3.20
2023-03-16T03:17:10.080Z,-3.20
2023-03-16T03:19:37.036Z,-3.20
2023-03-16T03:22:06.479Z,-3.30
2023-03-16T03:24:34.504Z,-3.31
2023-03-16T03:27:05.678Z,-3.29
2023-03-16T03:29:36.168Z,-3.34
2023-03-16T03:32:04.440Z,-3.27
2023-03-16T03:34:31.856Z,-3.27
2023-03-16T03:36:59.186Z,-3.28
2023-03-16T03:39:25.766Z,-3.31
2023-03-16T03:41:55.475Z,-3.33
2023-03-16T03:44:23.065Z,-3.32
2023-03-16T03:46:50.109Z,-3.37
2023-03-16T03:49:16.674Z,-3.40
2023-03-16T03:51:44.187Z,-3.38
2023-03-16T03:54:10.862Z,-3.39
2023-03-16T03:56:37.556Z,-3.38
2023-03-16T03:59:04.148Z,-3.39
2023-03-16T04:01:30.798Z,-3.44
2023-03-16T04:03:57.388Z,-3.42
2023-03-16T04:06:23.895Z,-3.50
2023-03-16T04:08:51.301Z,-3.45
2023-03-16T04:11:17.851Z,-3.49
2023-03-16T04:13:44.344Z,-3.44
2023-03-16T04:16:11.160Z,-3.47
2023-03-16T04:18:40.327Z,-3.56
2023-03-16T04:21:12.717Z,-3.61
2023-03-16T04:23:39.365Z,-3.62
2023-03-16T04:26:05.862Z,-3.66
2023-03-16T04:28:32.813Z,-3.64
2023-03-16T04:31:05.484Z,-3.66
2023-03-16T04:33:32.428Z,-3.62
2023-03-16T04:35:59.645Z,-3.58
2023-03-16T04:38:26.433Z,-3.55
2023-03-16T04:40:52.929Z,-3.64
2023-03-16T04:43:19.485Z,-3.63
2023-03-16T04:45:46.121Z,-3.66
2023-03-16T04:48:12.645Z,-3.66
2023-03-16T04:50:39.211Z,-3.66
2023-03-16T04:53:05.718Z,-3.65
2023-03-16T04:55:32.303Z,-3.66
2023-03-16T04:57:58.905Z,-3.69
2023-03-16T05:00:26.016Z,-3.72
2023-03-16T05:02:52.707Z,-3.71
2023-03-16T05:05:19.249Z,-3.63
2023-03-16T05:07:45.778Z,-3.60
2023-03-16T05:10:14.841Z,-3.59
2023-03-16T05:12:41.362Z,-3.61
2023-03-16T05:15:08.771Z,-3.55
2023-03-16T05:17:35.331Z,-3.50
2023-03-16T05:20:02.378Z,-3.41
2023-03-16T05:22:29.056Z,-3.35
2023-03-16T05:24:55.559Z,-3.28
2023-03-16T05:27:22.051Z,-3.23
2023-03-16T05:29:48.562Z,-3.19
2023-03-16T05:32:17.198Z,-3.12
2023-03-16T05:34:44.224Z,-3.07
2023-03-16T05:37:10.945Z,-3.02
2023-03-16T05:39:37.844Z,-2.95
2023-03-16T05:42:05.936Z,-2.86
2023-03-16T05:44:33.884Z,-2.77
2023-03-16T05:47:00.443Z,-2.68
2023-03-16T05:49:27.383Z,-2.59
2023-03-16T05:51:54.915Z,-2.46
2023-03-16T05:54:21.401Z,-2.36
2023-03-16T05:56:47.973Z,-2.24
2023-03-16T05:59:14.521Z,-2.08
2023-03-16T06:01:41.035Z,-1.95
2023-03-16T06:04:07.690Z,-1.78
2023-03-16T06:06:34.363Z,-1.66
2023-03-16T06:09:01.330Z,-1.46
2023-03-16T06:11:27.831Z,-1.25
2023-03-16T06:13:57.919Z,-0.87
2023-03-16T06:16:24.807Z,-0.20
2023-03-16T06:18:51.419Z,1.01
2023-03-16T06:21:18.051Z,2.08
2023-03-16T06:23:45.010Z,2.97
2023-03-16T06:26:11.593Z,4.29
2023-03-16T06:28:38.107Z,5.12
2023-03-16T06:31:04.712Z,5.81
2023-03-16T06:33:31.631Z,6.37
2023-03-16T06:35:58.364Z,6.62
2023-03-16T06:38:24.976Z,7.60
2023-03-16T06:40:53.125Z,8.52
2023-03-16T06:43:20.145Z,7.68
2023-03-16T06:45:47.103Z,8.99
2023-03-16T06:48:13.693Z,10.70
2023-03-16T06:50:40.180Z,11.98
2023-03-16T06:53:06.710Z,12.40
2023-03-16T06:55:33.344Z,12.00
2023-03-16T06:57:59.887Z,12.75
2023-03-16T07:00:26.732Z,13.19
2023-03-16T07:02:53.422Z,13.60
2023-03-16T07:05:19.966Z,11.80
2023-03-16T07:07:46.531Z,11.98
2023-03-16T07:10:16.064Z,12.90
2023-03-16T07:12:42.825Z,12.91
2023-03-16T07:15:10.960Z,12.81
2023-03-16T07:17:37.639Z,12.42
2023-03-16T07:20:05.991Z,11.87
2023-03-16T07:22:33.146Z,13.77
2023-03-16T07:24:59.875Z,12.70
2023-03-16T07:27:26.348Z,14.47
2023-03-16T07:29:52.903Z,12.77
2023-03-16T07:32:19.964Z,11.88
2023-03-16T07:34:46.506Z,12.37
2023-03-16T07:37:18.389Z,13.62
2023-03-16T07:39:48.237Z,12.87
2023-03-16T07:42:14.793Z,14.08
2023-03-16T07:44:41.900Z,14.17
2023-03-16T07:47:12.511Z,14.68
2023-03-16T07:49:39.227Z,15.62
2023-03-16T07:52:06.142Z,16.91
2023-03-16T07:54:32.643Z,16.45
2023-03-16T07:56:59.193Z,16.69
2023-03-16T07:59:25.730Z,17.81
2023-03-16T08:01:52.249Z,17.59
2023-03-16T08:04:19.131Z,18.83
2023-03-16T08:06:45.669Z,17.40
2023-03-16T08:09:12.212Z,17.82
2023-03-16T08:11:38.709Z,16.37
2023-03-16T08:14:05.601Z,16.78
2023-03-16T08:16:32.281Z,16.20
2023-03-16T08:18:59.783Z,18.72
2023-03-16T08:21:26.264Z,17.85
2023-03-16T08:23:52.770Z,17.17
2023-03-16T08:26:21.124Z,17.07
2023-03-16T08:28:48.127Z,17.15
2023-03-16T08:31:15.612Z,16.79
2023-03-16T08:33:43.565Z,15.62
2023-03-16T08:36:12.287Z,16.94
2023-03-16T08:38:40.175Z,15.44
2023-03-16T08:41:07.519Z,16.30
2023-03-16T08:43:34.515Z,17.03
2023-03-16T08:46:01.835Z,15.39
2023-03-16T08:48:28.901Z,15.64
2023-03-16T08:50:55.584Z,16.63
2023-03-16T08:53:22.194Z,16.66
2023-03-16T08:55:48.680Z,16.54
2023-03-16T08:58:15.703Z,15.96
2023-03-16T09:00:44.319Z,15.56
2023-03-16T09:03:11.991Z,16.83
2023-03-16T09:05:38.506Z,16.55
2023-03-16T09:08:06.259Z,16.39
2023-03-16T09:10:33.285Z,14.51
2023-03-16T09:12:59.801Z,15.57
2023-03-16T09:15:26.916Z,15.08
2023-03-16T09:17:54.438Z,15.76
2023-03-16T09:20:26.422Z,16.46
2023-03-16T09:22:55.084Z,17.59
2023-03-16T09:25:22.321Z,16.88
2023-03-16T09:27:48.850Z,15.82
2023-03-16T09:30:16.870Z,15.90
2023-03-16T09:32:43.794Z,15.92
2023-03-16T09:35:10.330Z,13.51
2023-03-16T09:37:45.252Z,13.72
2023-03-16T09:40:26.702Z,13.05
2023-03-16T09:42:59.100Z,12.59
2023-03-16T09:46:06.578Z,12.78
2023-03-16T09:48:35.805Z,14.20
2023-03-16T09:51:06.213Z,13.62
2023-03-16T09:53:35.445Z,12.97
2023-03-16T09:56:10.563Z,11.69
2023-03-16T09:58:37.246Z,12.33
2023-03-16T10:01:45.606Z,12.92
2023-03-16T10:04:36.904Z,15.01
2023-03-16T10:07:30.365Z,14.02
2023-03-16T10:10:28.471Z,14.46
2023-03-16T10:13:00.222Z,13.30
2023-03-16T10:15:31.407Z,12.00
2023-03-16T10:18:06.587Z,12.73
2023-03-16T10:20:34.808Z,14.31
2023-03-16T10:23:13.464Z,12.66
2023-03-16T10:25:49.780Z,13.26
2023-03-16T10:28:22.392Z,13.83
2023-03-16T10:30:51.470Z,12.35
2023-03-16T10:33:31.581Z,13.66
2023-03-16T10:36:02.597Z,11.68
2023-03-16T10:38:40.892Z,11.29
2023-03-16T10:41:23.974Z,13.53
2023-03-16T10:43:54.404Z,14.68
2023-03-16T10:46:22.360Z,15.20
2023-03-16T10:49:20.274Z,15.44
2023-03-16T10:51:47.013Z,15.72
2023-03-16T10:54:24.900Z,15.70
2023-03-16T10:56:51.605Z,16.47
2023-03-16T10:59:32.041Z,17.01
2023-03-16T11:02:00.231Z,15.53
2023-03-16T11:04:31.633Z,15.01
2023-03-16T11:06:58.887Z,15.47
2023-03-16T11:09:33.065Z,16.50
2023-03-16T11:12:01.471Z,16.08
2023-03-16T11:14:29.469Z,15.36
2023-03-16T11:17:16.163Z,15.14
2023-03-16T11:19:53.292Z,15.39
2023-03-16T11:22:24.419Z,14.96
2023-03-16T11:25:03.055Z,13.51
2023-03-16T11:27:49.153Z,15.55
2023-03-16T11:30:31.095Z,13.85
2023-03-16T11:33:00.683Z,13.08
2023-03-16T11:35:59.792Z,11.20
2023-03-16T11:38:34.636Z,11.74
2023-03-16T11:41:12.202Z,12.53
2023-03-16T11:43:57.041Z,12.89
2023-03-16T11:46:27.669Z,14.02
2023-03-16T11:49:24.753Z,14.10
2023-03-16T11:52:15.453Z,13.95
2023-03-16T11:54:55.489Z,14.43
2023-03-16T11:57:41.825Z,14.61
2023-03-16T12:00:20.565Z,14.53
2023-03-16T12:03:26.536Z,12.65
2023-03-16T12:06:07.785Z,11.94
2023-03-16T12:08:45.087Z,12.07
2023-03-16T12:11:25.511Z,11.73
2023-03-16T12:14:06.608Z,10.62
2023-03-16T12:16:49.826Z,9.31
2023-03-16T12:19:23.035Z,9.02
2023-03-16T12:22:01.259Z,9.30
2023-03-16T12:24:35.806Z,8.88
2023-03-16T12:27:02.709Z,8.66
2023-03-16T12:29:52.555Z,8.97
2023-03-16T12:32:45.613Z,9.05
2023-03-16T12:35:34.008Z,9.16
2023-03-16T12:38:15.680Z,8.90
2023-03-16T12:40:50.044Z,8.77
2023-03-16T12:43:31.463Z,9.11
2023-03-16T12:46:18.630Z,8.50
2023-03-16T12:48:54.155Z,8.23
2023-03-16T12:51:20.644Z,8.37
2023-03-16T12:53:55.404Z,8.13
2023-03-16T12:56:33.538Z,8.40
2023-03-16T12:59:03.221Z,8.12
2023-03-16T13:01:38.030Z,8.31
2023-03-16T13:04:32.553Z,8.26
2023-03-16T13:07:09.608Z,8.14
2023-03-16T13:09:42.407Z,8.27
2023-03-16T13:12:10.557Z,8.05
2023-03-16T13:14:44.745Z,7.99
2023-03-16T13:17:17.415Z,7.80
2023-03-16T13:19:47.871Z,7.70
2023-03-16T13:22:28.017Z,8.09
2023-03-16T13:25:14.102Z,8.08
2023-03-16T13:27:44.660Z,7.68
2023-03-16T13:30:28.749Z,7.87
2023-03-16T13:33:03.724Z,7.64
2023-03-16T13:35:30.495Z,8.14
2023-03-16T13:38:05.818Z,8.35
2023-03-16T13:40:33.196Z,8.51
2023-03-16T13:43:01.854Z,8.68
2023-03-16T13:45:33.395Z,8.37
2023-03-16T13:48:03.882Z,8.68
2023-03-16T13:50:35.218Z,8.59
2023-03-16T13:53:14.689Z,8.95
2023-03-16T13:55:44.734Z,9.21
2023-03-16T13:58:23.577Z,9.25
2023-03-16T14:00:50.144Z,8.89
2023-03-16T14:03:19.407Z,8.72
2023-03-16T14:05:47.589Z,8.69
2023-03-16T14:08:21.613Z,8.68
2023-03-16T14:10:49.380Z,8.25
2023-03-16T14:13:28.125Z,8.17
2023-03-16T14:15:57.211Z,8.07
2023-03-16T14:18:34.531Z,8.03
2023-03-16T14:21:06.947Z,7.86
2023-03-16T14:23:38.031Z,8.04
2023-03-16T14:26:06.823Z,8.07
2023-03-16T14:28:34.279Z,8.09
2023-03-16T14:31:07.460Z,8.39
2023-03-16T14:33:41.499Z,7.95
2023-03-16T14:36:16.501Z,7.99
2023-03-16T14:38:45.290Z,7.94
2023-03-16T14:41:20.736Z,8.00
2023-03-16T14:44:06.309Z,8.11
2023-03-16T14:46:38.054Z,7.98
2023-03-16T14:49:43.325Z,7.81
2023-03-16T14:52:21.724Z,7.99
2023-03-16T14:54:48.282Z,7.86
2023-03-16T14:57:16.979Z,7.71
2023-03-16T14:59:43.674Z,7.78
2023-03-16T15:02:17.093Z,7.86
2023-03-16T15:04:44.524Z,7.81
2023-03-16T15:07:22.477Z,7.70
2023-03-16T15:09:50.799Z,7.65
2023-03-16T15:12:19.739Z,7.65
2023-03-16T15:15:05.645Z,7.66
2023-03-16T15:17:32.763Z,7.56
2023-03-16T15:19:59.794Z,7.44
2023-03-16T15:22:35.699Z,7.51
2023-03-16T15:25:27.403Z,7.37
2023-03-16T15:27:54.538Z,7.16
2023-03-16T15:30:26.825Z,7.16
2023-03-16T15:32:53.570Z,7.14
2023-03-16T15:35:20.822Z,7.11
2023-03-16T15:37:47.790Z,6.92
2023-03-16T15:40:26.308Z,6.97
2023-03-16T15:42:54.433Z,7.04
2023-03-16T15:45:23.003Z,6.94
2023-03-16T15:47:51.194Z,6.83
2023-03-16T15:50:20.962Z,6.75
2023-03-16T15:52:51.393Z,6.65
2023-03-16T15:55:22.686Z,6.66
2023-03-16T15:57:55.777Z,6.66
2023-03-16T16:00:30.827Z,6.62
2023-03-16T16:02:58.764Z,6.59
2023-03-16T16:05:25.937Z,6.51
2023-03-16T16:07:53.515Z,6.42
2023-03-16T16:10:20.783Z,6.34
2023-03-16T16:12:52.766Z,6.22
2023-03-16T16:15:26.124Z,6.12
2023-03-16T16:18:16.395Z,6.07
2023-03-16T16:20:41.145Z,5.95
2023-03-16T16:23:10.517Z,5.83
2023-03-16T16:25:41.630Z,5.74
2023-03-16T16:28:23.679Z,5.60
2023-03-16T16:30:51.087Z,5.48
2023-03-16T16:33:35.976Z,5.46
2023-03-16T16:36:13.292Z,5.43
2023-03-16T16:38:39.875Z,5.36
2023-03-16T16:41:15.680Z,5.23
2023-03-16T16:43:47.766Z,5.14
2023-03-16T16:46:20.221Z,4.96
2023-03-16T16:48:48.954Z,4.79
2023-03-16T16:51:21.833Z,4.63
2023-03-16T16:53:49.423Z,4.48
2023-03-16T16:56:18.649Z,4.32
2023-03-16T16:58:46.511Z,4.21
2023-03-16T17:01:16.089Z,4.09
2023-03-16T17:03:42.827Z,4.00
2023-03-16T17:06:17.038Z,3.84
2023-03-16T17:08:47.406Z,3.75
2023-03-16T17:11:22.005Z,3.70
2023-03-16T17:13:50.651Z,3.69
2023-03-16T17:16:18.565Z,3.55
2023-03-16T17:18:45.419Z,3.44
2023-03-16T17:21:20.776Z,3.57
2023-03-16T17:23:49.108Z,3.38
2023-03-16T17:26:19.250Z,3.15
2023-03-16T17:28:51.964Z,3.08
2023-03-16T17:31:24.601Z,2.94
2023-03-16T17:33:52.661Z,2.82
2023-03-16T17:36:20.752Z,2.72
2023-03-16T17:38:48.226Z,2.67
2023-03-16T17:41:22.353Z,2.55
2023-03-16T17:43:50.964Z,2.50
2023-03-16T17:46:20.416Z,2.40
2023-03-16T17:48:47.850Z,2.26
2023-03-16T17:51:16.602Z,2.21
2023-03-16T17:53:44.414Z,2.07
2023-03-16T17:56:19.775Z,2.05
2023-03-16T17:58:54.116Z,2.10
2023-03-16T18:01:24.765Z,2.08
2023-03-16T18:03:51.529Z,1.99
2023-03-16T18:06:24.728Z,1.97
2023-03-16T18:08:51.691Z,1.94
2023-03-16T18:11:32.505Z,1.89
2023-03-16T18:13:59.314Z,1.97
2023-03-16T18:16:28.546Z,2.10
2023-03-16T18:19:00.120Z,2.14
2023-03-16T18:21:28.488Z,2.16
2023-03-16T18:23:55.181Z,2.03
2023-03-16T18:26:23.958Z,2.00
2023-03-16T18:28:51.429Z,1.73
2023-03-16T18:31:21.738Z,1.65
2023-03-16T18:33:55.216Z,1.58
2023-03-16T18:36:29.956Z,1.69
2023-03-16T18:38:59.750Z,1.66
2023-03-16T18:41:33.712Z,1.76
2023-03-16T18:44:05.818Z,1.79
2023-03-16T18:46:35.441Z,1.78
2023-03-16T18:49:18.795Z,1.69
2023-03-16T18:51:52.826Z,1.57
2023-03-16T18:54:25.451Z,1.44
2023-03-16T18:56:53.874Z,1.29
2023-03-16T18:59:21.102Z,1.37
2023-03-16T19:01:47.899Z,1.34
2023-03-16T19:04:19.862Z,1.12
2023-03-16T19:09:23.006Z,0.80
2023-03-16T19:11:50.370Z,0.74
2023-03-16T19:14:19.912Z,0.72
2023-03-16T19:16:46.729Z,0.59
2023-03-16T19:19:15.228Z,0.54
2023-03-16T19:21:43.310Z,0.77
2023-03-16T19:24:21.502Z,0.76
2023-03-16T19:26:48.482Z,0.62
2023-03-16T19:29:15.929Z,0.51
2023-03-16T19:31:43.799Z,0.36
2023-03-16T19:34:19.500Z,0.34
2023-03-16T19:36:47.554Z,0.21
2023-03-16T19:39:17.114Z,0.10
2023-03-16T19:41:47.741Z,0.16
2023-03-16T19:44:17.540Z,0.19
2023-03-16T19:46:44.612Z,0.30
2023-03-16T19:49:19.842Z,0.35
2023-03-16T19:51:47.771Z,0.18
2023-03-16T19:54:23.737Z,0.04
2023-03-16T19:56:52.580Z,0.10
2023-03-16T19:59:20.265Z,-0.03
2023-03-16T20:01:47.217Z,-0.04
2023-03-16T20:04:25.255Z,0.16
2023-03-16T20:06:52.060Z,0.09
2023-03-16T20:09:18.686Z,0.16
2023-03-16T20:11:46.068Z,-0.05
2023-03-16T20:14:29.285Z,-0.04
2023-03-16T20:16:56.087Z,-0.21
2023-03-16T20:19:23.197Z,-0.10
2023-03-16T20:21:49.922Z,-0.01
2023-03-16T20:24:19.430Z,-0.01
2023-03-16T20:26:48.256Z,-0.15
2023-03-16T20:29:39.194Z,-0.30
2023-03-16T20:32:14.506Z,-0.45
2023-03-16T20:34:41.068Z,-0.53
2023-03-16T20:37:25.004Z,-0.53
2023-03-16T20:39:53.889Z,-0.51
2023-03-16T20:42:25.939Z,-0.65
2023-03-16T20:44:52.821Z,-0.65
2023-03-16T20:47:22.899Z,-0.63
2023-03-16T20:49:50.832Z,-0.55
2023-03-16T20:52:20.462Z,-0.65
2023-03-16T20:54:48.207Z,-0.82
2023-03-16T20:57:24.267Z,-0.79
2023-03-16T20:59:52.324Z,-0.62
2023-03-16T21:02:36.441Z,-0.84
2023-03-16T21:05:05.577Z,-0.79
2023-03-16T21:07:32.295Z,-0.62
2023-03-16T21:09:58.881Z,-0.33
2023-03-16T21:12:32.053Z,-0.32
2023-03-16T21:15:00.215Z,-0.30
2023-03-16T21:17:34.662Z,-0.17
2023-03-16T21:20:01.466Z,-0.01
2023-03-16T21:22:30.304Z,0.14
2023-03-16T21:24:57.617Z,-0.03
2023-03-16T21:27:26.828Z,-0.05
2023-03-16T21:29:55.192Z,-0.14
2023-03-16T21:32:25.990Z,-0.14
2023-03-16T21:34:53.226Z,-0.15
2023-03-16T21:37:23.957Z,-0.10
2023-03-16T21:39:53.920Z,-0.01
2023-03-16T21:42:20.659Z,-0.03
2023-03-16T21:44:47.346Z,-0.15
2023-03-16T21:47:26.503Z,-0.19
2023-03-16T21:49:54.800Z,-0.23
2023-03-16T21:52:26.803Z,-0.32
2023-03-16T21:54:54.581Z,-0.38
2023-03-16T21:57:21.665Z,-0.39
2023-03-16T21:59:48.505Z,-0.43
2023-03-16T22:02:20.171Z,-0.44
2023-03-16T22:04:47.322Z,-0.49
2023-03-16T22:07:14.351Z,-0.59
2023-03-16T22:09:41.154Z,-0.80
2023-03-16T22:12:11.441Z,-0.92
2023-03-16T22:14:38.340Z,-0.99
2023-03-16T22:17:06.638Z,-1.08
2023-03-16T22:19:34.176Z,-1.19
2023-03-16T22:22:00.886Z,-1.13
2023-03-16T22:24:30.620Z,-1.26
2023-03-16T22:26:58.118Z,-1.25
2023-03-16T22:29:30.285Z,-1.38
2023-03-16T22:32:07.638Z,-1.42
2023-03-16T22:34:43.801Z,-1.41
2023-03-16T22:37:13.214Z,-1.57
2023-03-16T22:39:44.160Z,-1.56
2023-03-16T22:42:32.128Z,-1.54
2023-03-16T22:44:58.930Z,-1.47
2023-03-16T22:47:33.904Z,-1.39
2023-03-16T22:50:00.460Z,-1.41
2023-03-16T22:52:30.885Z,-1.50
2023-03-16T22:55:00.148Z,-1.46
2023-03-16T22:57:27.562Z,-1.46
2023-03-16T22:59:54.150Z,-1.50
2023-03-16T23:02:24.559Z,-1.49
2023-03-16T23:04:51.170Z,-1.49
2023-03-16T23:07:18.228Z,-1.51
2023-03-16T23:09:44.777Z,-1.60
2023-03-16T23:12:17.352Z,-1.64
2023-03-16T23:14:43.900Z,-1.68
2023-03-16T23:17:22.261Z,-1.69
2023-03-16T23:19:48.954Z,-1.72
2023-03-16T23:22:15.629Z,-1.75
2023-03-16T23:24:42.487Z,-1.79
2023-03-16T23:27:18.887Z,-1.76
2023-03-16T23:29:46.042Z,-1.77
2023-03-16T23:32:14.744Z,-1.88
2023-03-16T23:34:41.514Z,-1.97
2023-03-16T23:37:08.669Z,-1.97
2023-03-16T23:39:35.171Z,-1.95
2023-03-16T23:42:05.104Z,-1.90
2023-03-16T23:44:31.694Z,-1.94
2023-03-16T23:46:59.863Z,-2.05
2023-03-16T23:49:30.636Z,-2.18
2023-03-16T23:51:58.886Z,-2.18
2023-03-16T23:54:29.647Z,-2.19
2023-03-16T23:56:56.392Z,-2.17
2023-03-16T23:59:23.629Z,-2.13
